Time;durP1;ratioP1;P1;durP2;ratioP2;P2;SDS_P1;SDS_P2;PMS_P1;PMS_P2;Temp;Humidity;BMP_temperature;BMP_pressure;BME280_temperature;BME280_humidity;BME280_pressure;Samples;Min_cycle;Max_cycle;Signal;HPM_P1;HPM_P2
2021/07/01 00:01:36;;;;;;;15.73;11.10;;;13.50;99.90;;;;;;4995623;28;20449;-75
2021/07/01 00:04:02;;;;;;;20.70;11.57;;;13.60;99.90;;;;;;4995334;28;20943;-77
2021/07/01 00:06:27;;;;;;;16.83;10.80;;;13.60;99.90;;;;;;4995624;28;20191;-77
2021/07/01 00:08:53;;;;;;;15.00;10.33;;;13.50;99.90;;;;;;4994771;28;20551;-74
2021/07/01 00:11:18;;;;;;;18.33;11.80;;;13.60;99.90;;;;;;4994812;28;20184;-77
2021/07/01 00:13:44;;;;;;;20.50;10.43;;;13.50;99.90;;;;;;4994586;28;20589;-76
2021/07/01 00:16:10;;;;;;;16.30;9.97;;;13.50;99.90;;;;;;4995297;28;20175;-75
2021/07/01 00:18:35;;;;;;;15.10;9.47;;;13.40;99.90;;;;;;4995068;28;20241;-76
2021/07/01 00:21:01;;;;;;;17.20;10.43;;;13.40;99.90;;;;;;4995067;28;20179;-75
2021/07/01 00:23:26;;;;;;;17.70;10.00;;;13.40;99.90;;;;;;4994560;28;20187;-76
2021/07/01 00:25:52;;;;;;;18.57;10.87;;;13.50;99.90;;;;;;4995699;28;20199;-76
2021/07/01 00:28:18;;;;;;;15.50;9.00;;;13.50;99.90;;;;;;4994912;28;20179;-77
2021/07/01 00:30:43;;;;;;;18.10;11.33;;;13.40;99.90;;;;;;4993843;28;20191;-74
2021/07/01 00:33:09;;;;;;;20.57;12.20;;;13.40;99.90;;;;;;4993452;28;20222;-76
2021/07/01 00:35:35;;;;;;;15.43;10.97;;;13.40;99.90;;;;;;4994593;28;20630;-75
2021/07/01 00:38:00;;;;;;;18.57;10.10;;;13.30;99.90;;;;;;4993422;28;20225;-76
2021/07/01 00:40:26;;;;;;;17.77;10.80;;;13.30;99.90;;;;;;4977401;28;20544;-76
2021/07/01 00:42:52;;;;;;;16.30;10.90;;;13.30;99.90;;;;;;4992759;28;20183;-77
2021/07/01 00:45:17;;;;;;;13.30;9.90;;;13.30;99.90;;;;;;4994296;28;20206;-77
2021/07/01 00:47:43;;;;;;;11.40;7.53;;;13.30;99.90;;;;;;4994136;28;20473;-76
2021/07/01 00:50:10;;;;;;;12.70;8.03;;;13.30;99.90;;;;;;4993204;28;20195;-75
2021/07/01 00:52:37;;;;;;;7.57;6.77;;;13.10;99.90;;;;;;4994062;28;20231;-74
2021/07/01 00:55:04;;;;;;;12.73;8.40;;;13.00;99.90;;;;;;4993951;28;20434;-74
2021/07/01 00:57:31;;;;;;;11.07;8.63;;;13.10;99.90;;;;;;4994161;28;20406;-74
2021/07/01 00:59:57;;;;;;;10.00;8.30;;;13.10;99.90;;;;;;4994070;28;20418;-76
2021/07/01 01:02:22;;;;;;;15.30;9.70;;;13.00;99.90;;;;;;4994429;28;20411;-77
2021/07/01 01:04:48;;;;;;;14.10;10.20;;;13.00;99.90;;;;;;4993776;28;20192;-74
2021/07/01 01:07:13;;;;;;;16.10;10.67;;;13.10;99.90;;;;;;4994070;28;20177;-75
2021/07/01 01:09:39;;;;;;;16.07;11.47;;;13.10;99.90;;;;;;4994172;28;20262;-76
2021/07/01 01:12:07;;;;;;;14.50;10.90;;;13.10;99.90;;;;;;4992860;28;20645;-76
2021/07/01 01:14:32;;;;;;;15.17;12.00;;;13.10;99.90;;;;;;4993534;28;20230;-76
2021/07/01 01:16:59;;;;;;;13.90;11.10;;;13.10;99.90;;;;;;4993972;28;20529;-75
2021/07/01 01:19:24;;;;;;;16.33;10.70;;;13.10;99.90;;;;;;4993137;28;20493;-76
2021/07/01 01:21:50;;;;;;;17.53;12.50;;;13.10;99.90;;;;;;4994292;28;20636;-75
2021/07/01 01:24:16;;;;;;;14.53;11.73;;;13.20;99.90;;;;;;4998009;28;20207;-77
2021/07/01 01:26:42;;;;;;;21.40;12.40;;;13.20;99.90;;;;;;4994143;28;20446;-76
2021/07/01 01:29:08;;;;;;;17.20;11.37;;;13.20;99.90;;;;;;4993898;28;20457;-74
2021/07/01 01:31:36;;;;;;;18.60;11.33;;;13.20;99.90;;;;;;4993839;28;20473;-77
2021/07/01 01:34:03;;;;;;;17.63;11.50;;;13.20;99.90;;;;;;4992098;28;21082;-75
2021/07/01 01:36:29;;;;;;;25.03;12.80;;;13.30;99.90;;;;;;4992609;28;20415;-76
2021/07/01 01:38:55;;;;;;;20.30;11.33;;;13.20;99.90;;;;;;4993766;28;20430;-76
2021/07/01 01:41:24;;;;;;;18.23;11.80;;;13.20;99.90;;;;;;4993673;28;20679;-75
2021/07/01 01:43:50;;;;;;;14.47;10.07;;;13.20;99.90;;;;;;4993332;28;20183;-75
2021/07/01 01:46:15;;;;;;;14.20;10.40;;;13.20;99.90;;;;;;4993473;28;20506;-76
2021/07/01 01:48:41;;;;;;;16.77;12.17;;;13.20;99.90;;;;;;4992544;28;20633;-77
2021/07/01 01:51:06;;;;;;;18.93;11.60;;;13.20;99.90;;;;;;4992479;28;20224;-74
2021/07/01 01:53:32;;;;;;;18.37;10.90;;;13.20;99.90;;;;;;4993065;28;20243;-75
2021/07/01 01:55:57;;;;;;;19.13;12.33;;;13.20;99.90;;;;;;4992583;28;20652;-75
2021/07/01 01:58:23;;;;;;;18.93;11.97;;;13.20;99.90;;;;;;4993787;28;20203;-76
2021/07/01 02:00:49;;;;;;;18.43;11.83;;;13.30;99.90;;;;;;4993632;28;20191;-76
2021/07/01 02:03:14;;;;;;;17.60;11.50;;;13.20;99.90;;;;;;4993361;28;20197;-77
2021/07/01 02:05:40;;;;;;;19.20;11.43;;;13.30;99.90;;;;;;4993296;28;20250;-75
2021/07/01 02:08:09;;;;;;;15.90;11.60;;;13.20;99.90;;;;;;4993540;28;20183;-74
2021/07/01 02:10:35;;;;;;;18.50;12.80;;;13.30;99.90;;;;;;4993496;28;20175;-76
2021/07/01 02:13:03;;;;;;;18.77;12.73;;;13.30;99.90;;;;;;4993063;28;20466;-76
2021/07/01 02:15:28;;;;;;;17.97;12.43;;;13.30;99.90;;;;;;4993386;28;20435;-76
2021/07/01 02:17:55;;;;;;;18.17;13.10;;;13.40;99.90;;;;;;4993661;28;20472;-76
2021/07/01 02:20:27;;;;;;;16.50;12.27;;;13.40;99.90;;;;;;4993536;28;20184;-76
2021/07/01 02:22:53;;;;;;;14.17;11.67;;;13.30;99.90;;;;;;4993233;28;20419;-74
2021/07/01 02:25:19;;;;;;;14.83;11.97;;;13.30;99.90;;;;;;4992130;28;20458;-75
2021/07/01 02:27:45;;;;;;;11.70;10.50;;;13.30;99.90;;;;;;4993552;28;20418;-76
2021/07/01 02:30:13;;;;;;;11.97;10.63;;;13.30;99.90;;;;;;4993319;28;20564;-78
2021/07/01 02:32:38;;;;;;;12.27;10.97;;;13.30;99.90;;;;;;4993535;28;20301;-76
2021/07/01 02:35:07;;;;;;;17.73;10.73;;;13.30;99.90;;;;;;4996719;28;20607;-76
2021/07/01 02:37:34;;;;;;;20.60;11.83;;;13.30;99.90;;;;;;4996729;28;20223;-77
2021/07/01 02:39:59;;;;;;;16.20;12.27;;;13.30;99.90;;;;;;4996691;28;20505;-75
2021/07/01 02:42:26;;;;;;;14.17;11.90;;;13.20;99.90;;;;;;4995340;28;20457;-76
2021/07/01 02:44:51;;;;;;;16.00;12.00;;;13.20;99.90;;;;;;4995058;28;20211;-76
2021/07/01 02:47:17;;;;;;;14.40;11.97;;;13.30;99.90;;;;;;4996557;28;20425;-76
2021/07/01 02:49:42;;;;;;;21.70;13.17;;;13.30;99.90;;;;;;4996154;28;20190;-75
2021/07/01 02:52:08;;;;;;;15.50;12.93;;;13.30;99.90;;;;;;4996645;28;20187;-77
2021/07/01 02:54:33;;;;;;;16.93;12.30;;;13.30;99.90;;;;;;4995992;28;20219;-76
2021/07/01 02:57:01;;;;;;;18.43;12.93;;;13.20;99.90;;;;;;4996508;28;20642;-77
2021/07/01 02:59:26;;;;;;;16.00;12.77;;;13.20;99.90;;;;;;4996374;28;20210;-77
2021/07/01 03:01:52;;;;;;;19.43;12.80;;;13.30;99.90;;;;;;4996460;28;20416;-76
2021/07/01 03:04:18;;;;;;;19.23;13.10;;;13.30;99.90;;;;;;4995994;28;20199;-74
2021/07/01 03:06:43;;;;;;;20.10;13.73;;;13.30;99.90;;;;;;4996344;28;20211;-77
2021/07/01 03:09:10;;;;;;;20.27;12.80;;;13.30;99.90;;;;;;4996433;28;20198;-76
2021/07/01 03:11:36;;;;;;;17.07;12.30;;;13.30;99.90;;;;;;4996361;28;20841;-75
2021/07/01 03:14:02;;;;;;;15.23;11.47;;;13.30;99.90;;;;;;4995625;28;20502;-76
2021/07/01 03:16:27;;;;;;;16.23;13.43;;;13.30;99.90;;;;;;4996059;28;20459;-75
2021/07/01 03:18:54;;;;;;;18.50;14.83;;;13.40;99.90;;;;;;4995976;28;20222;-75
2021/07/01 03:21:21;;;;;;;17.10;12.63;;;13.40;99.90;;;;;;4994843;28;20708;-76
2021/07/01 03:23:48;;;;;;;22.27;15.73;;;13.30;99.90;;;;;;4995705;28;20426;-75
2021/07/01 03:26:14;;;;;;;18.27;13.33;;;13.30;99.90;;;;;;4994629;28;20919;-76
2021/07/01 03:28:40;;;;;;;24.80;13.10;;;13.30;99.90;;;;;;4995741;28;20418;-74
2021/07/01 03:31:07;;;;;;;18.17;12.93;;;13.20;99.90;;;;;;4995724;28;20426;-74
2021/07/01 03:33:32;;;;;;;17.53;12.80;;;13.20;99.90;;;;;;4995374;28;20258;-74
2021/07/01 03:35:59;;;;;;;19.47;14.30;;;13.20;99.90;;;;;;4995825;28;20407;-74
2021/07/01 03:38:25;;;;;;;20.10;12.63;;;13.20;99.90;;;;;;4995609;28;20443;-77
2021/07/01 03:40:51;;;;;;;18.03;13.63;;;13.20;99.90;;;;;;4995432;28;20457;-76
2021/07/01 03:43:17;;;;;;;19.63;13.00;;;13.20;99.90;;;;;;4995064;28;20757;-75
2021/07/01 03:45:43;;;;;;;21.43;13.20;;;13.20;99.90;;;;;;4995409;28;20454;-75
2021/07/01 03:48:08;;;;;;;18.80;13.60;;;13.30;99.90;;;;;;4995473;28;20415;-77
2021/07/01 03:50:34;;;;;;;22.80;15.03;;;13.30;99.90;;;;;;4995443;28;20251;-74
2021/07/01 03:53:00;;;;;;;32.70;16.63;;;13.20;99.90;;;;;;4994863;28;20672;-75
2021/07/01 03:55:25;;;;;;;20.80;15.40;;;13.20;99.90;;;;;;4995085;28;20211;-75
2021/07/01 03:57:51;;;;;;;25.33;16.60;;;13.20;99.90;;;;;;4995452;28;20211;-76
2021/07/01 04:00:17;;;;;;;32.43;18.63;;;13.20;99.90;;;;;;4995177;28;20186;-77
2021/07/01 04:02:43;;;;;;;27.20;17.57;;;13.30;99.90;;;;;;4995353;28;20179;-78
2021/07/01 04:05:09;;;;;;;28.43;17.90;;;13.30;99.90;;;;;;4993795;28;20966;-78
2021/07/01 04:07:34;;;;;;;31.53;19.90;;;13.20;99.90;;;;;;4995321;28;20179;-76
2021/07/01 04:10:06;;;;;;;33.93;20.73;;;13.20;99.90;;;;;;4995144;28;20183;-76
2021/07/01 04:12:32;;;;;;;43.63;19.13;;;13.30;99.90;;;;;;4995128;28;20840;-77
2021/07/01 04:14:58;;;;;;;27.90;20.10;;;13.10;99.90;;;;;;4993542;28;20549;-75
2021/07/01 04:17:23;;;;;;;36.80;20.90;;;13.10;99.90;;;;;;4977351;28;20437;-75
2021/07/01 04:19:49;;;;;;;39.73;20.80;;;13.20;99.90;;;;;;4994924;28;20382;-75
2021/07/01 04:22:14;;;;;;;35.67;21.07;;;13.30;99.90;;;;;;4994885;28;20221;-75
2021/07/01 04:24:40;;;;;;;33.37;21.00;;;13.40;99.90;;;;;;4994392;28;20215;-75
2021/07/01 04:27:06;;;;;;;34.73;20.37;;;13.30;99.90;;;;;;4994951;28;20622;-75
2021/07/01 04:29:32;;;;;;;33.40;18.27;;;13.30;99.90;;;;;;4994725;28;20183;-76
2021/07/01 04:31:58;;;;;;;35.83;18.23;;;13.30;99.90;;;;;;4994861;28;20824;-76
2021/07/01 04:34:24;;;;;;;27.83;15.80;;;13.30;99.90;;;;;;4994187;28;20817;-75
2021/07/01 04:36:49;;;;;;;51.80;19.47;;;13.30;99.90;;;;;;4994785;28;20176;-76
2021/07/01 04:39:15;;;;;;;31.13;17.83;;;13.20;99.90;;;;;;4994406;28;20215;-76
2021/07/01 04:41:41;;;;;;;27.73;17.90;;;13.20;99.90;;;;;;4994447;28;20184;-74
2021/07/01 04:44:07;;;;;;;32.10;17.90;;;13.30;99.90;;;;;;4994546;28;20207;-74
2021/07/01 04:46:33;;;;;;;24.73;17.40;;;13.30;99.90;;;;;;4994988;28;20700;-75
2021/07/01 04:48:59;;;;;;;25.63;16.97;;;13.30;99.90;;;;;;4996111;28;20934;-77
2021/07/01 04:51:26;;;;;;;29.13;18.97;;;13.30;99.90;;;;;;4994450;28;20423;-75
2021/07/01 04:53:52;;;;;;;31.60;17.30;;;13.30;99.90;;;;;;4993799;28;20510;-76
2021/07/01 04:56:18;;;;;;;27.43;17.57;;;13.40;99.90;;;;;;4993914;28;20417;-75
2021/07/01 04:58:44;;;;;;;27.00;17.30;;;13.50;99.90;;;;;;4994275;28;20975;-75
2021/07/01 05:01:09;;;;;;;33.90;18.13;;;13.40;99.90;;;;;;4994002;28;20457;-77
2021/07/01 05:03:35;;;;;;;28.20;17.00;;;13.50;99.90;;;;;;4994072;28;20429;-76
2021/07/01 05:06:01;;;;;;;25.17;15.90;;;13.30;99.90;;;;;;4994513;28;20523;-75
2021/07/01 05:08:27;;;;;;;29.47;16.47;;;13.30;99.90;;;;;;4993964;28;20237;-77
2021/07/01 05:10:52;;;;;;;37.83;18.47;;;13.40;99.90;;;;;;4993056;28;20513;-76
2021/07/01 05:13:18;;;;;;;27.83;17.63;;;13.40;99.90;;;;;;4993728;28;20219;-76
2021/07/01 05:15:44;;;;;;;30.73;16.30;;;13.40;99.90;;;;;;4993992;28;20195;-76
2021/07/01 05:18:09;;;;;;;25.13;13.87;;;13.40;99.90;;;;;;4994206;28;20175;-75
2021/07/01 05:20:35;;;;;;;27.73;15.90;;;13.40;99.90;;;;;;4994216;28;20211;-76
2021/07/01 05:23:01;;;;;;;30.70;14.57;;;13.30;99.90;;;;;;4993834;28;20179;-74
2021/07/01 05:25:26;;;;;;;22.83;15.23;;;13.40;99.90;;;;;;4992670;28;20207;-74
2021/07/01 05:27:52;;;;;;;26.03;15.40;;;13.40;99.90;;;;;;4993721;28;20207;-75
2021/07/01 05:30:17;;;;;;;23.20;14.57;;;13.50;99.90;;;;;;4992930;28;20187;-75
2021/07/01 05:32:43;;;;;;;21.93;13.33;;;13.50;99.90;;;;;;4993467;28;20261;-78
2021/07/01 05:35:09;;;;;;;19.90;13.30;;;13.50;99.90;;;;;;4993513;28;20238;-76
2021/07/01 05:37:35;;;;;;;16.70;12.77;;;13.50;99.90;;;;;;4993836;28;20569;-74
2021/07/01 05:40:01;;;;;;;26.77;12.90;;;13.60;99.90;;;;;;4993554;28;20469;-75
2021/07/01 05:42:27;;;;;;;21.50;12.13;;;13.60;99.90;;;;;;4993626;28;20171;-75
2021/07/01 05:44:52;;;;;;;18.80;11.63;;;13.60;99.90;;;;;;4993340;28;20429;-77
2021/07/01 05:47:18;;;;;;;22.43;11.70;;;13.70;99.90;;;;;;4993434;28;20718;-75
2021/07/01 05:49:44;;;;;;;26.50;11.00;;;13.60;99.90;;;;;;4993452;28;20567;-75
2021/07/01 05:52:10;;;;;;;24.17;12.90;;;13.70;99.90;;;;;;4993617;28;20561;-75
2021/07/01 05:54:38;;;;;;;21.37;11.87;;;13.70;99.90;;;;;;4993225;28;20207;-75
2021/07/01 05:57:04;;;;;;;24.47;12.00;;;13.50;99.90;;;;;;4993737;28;20403;-75
2021/07/01 05:59:30;;;;;;;21.27;10.97;;;13.50;99.90;;;;;;4993661;28;20411;-75
2021/07/01 06:01:56;;;;;;;32.83;11.50;;;13.50;99.90;;;;;;4993589;28;20422;-74
2021/07/01 06:04:22;;;;;;;15.70;10.27;;;13.60;99.90;;;;;;4975725;28;20231;-76
2021/07/01 06:06:52;;;;;;;14.07;10.27;;;13.50;99.90;;;;;;4993607;28;20667;-75
2021/07/01 06:09:25;;;;;;;17.70;9.60;;;13.60;99.90;;;;;;4996995;28;20625;-76
2021/07/01 06:11:56;;;;;;;26.27;11.97;;;13.60;99.90;;;;;;4997626;28;20421;-75
2021/07/01 06:14:23;;;;;;;20.47;10.70;;;13.60;99.90;;;;;;4996685;28;20516;-75
2021/07/01 06:16:52;;;;;;;20.73;10.53;;;13.70;99.90;;;;;;4997230;28;20410;-75
2021/07/01 06:19:18;;;;;;;20.40;10.73;;;13.80;99.90;;;;;;4997084;28;20445;-75
2021/07/01 06:21:44;;;;;;;21.67;10.80;;;13.80;99.90;;;;;;4997167;28;20445;-74
2021/07/01 06:24:10;;;;;;;18.30;10.37;;;13.70;99.90;;;;;;4996517;28;20887;-76
2021/07/01 06:26:36;;;;;;;15.77;11.07;;;13.80;99.90;;;;;;4997090;28;20241;-74
2021/07/01 06:29:03;;;;;;;19.87;10.07;;;13.80;99.90;;;;;;4997680;28;20793;-77
2021/07/01 06:31:29;;;;;;;20.30;10.33;;;13.70;99.90;;;;;;4995891;28;20449;-78
2021/07/01 06:33:54;;;;;;;21.87;10.70;;;13.80;99.90;;;;;;4996506;28;20815;-77
2021/07/01 06:36:24;;;;;;;15.00;8.90;;;13.70;99.90;;;;;;4996738;28;20225;-75
2021/07/01 06:38:52;;;;;;;18.13;8.70;;;13.80;99.90;;;;;;4996871;28;20764;-76
2021/07/01 06:41:20;;;;;;;20.67;10.20;;;13.80;99.90;;;;;;4996718;28;20461;-75
2021/07/01 06:43:48;;;;;;;12.63;7.67;;;13.70;99.90;;;;;;4996273;28;20421;-74
2021/07/01 06:46:16;;;;;;;10.13;6.80;;;13.50;99.90;;;;;;4996495;28;20416;-76
2021/07/01 06:48:43;;;;;;;20.07;8.77;;;13.30;99.90;;;;;;4996490;28;20415;-77
2021/07/01 06:51:10;;;;;;;16.90;8.13;;;13.30;99.90;;;;;;4996545;28;20897;-75
2021/07/01 06:53:39;;;;;;;20.10;10.03;;;13.30;99.90;;;;;;4996040;28;20832;-74
2021/07/01 06:56:05;;;;;;;17.47;8.80;;;13.30;99.90;;;;;;4996497;28;20772;-76
2021/07/01 06:58:30;;;;;;;11.57;8.00;;;13.50;99.90;;;;;;4996425;28;20422;-74
2021/07/01 07:00:56;;;;;;;19.27;8.00;;;13.50;99.90;;;;;;4996403;28;20453;-77
2021/07/01 07:03:23;;;;;;;14.10;7.57;;;13.50;99.90;;;;;;4996044;28;20259;-75
2021/07/01 07:05:51;;;;;;;14.73;7.63;;;13.50;99.90;;;;;;4996237;28;20434;-75
2021/07/01 07:08:17;;;;;;;13.27;7.83;;;13.50;99.90;;;;;;4996225;28;20501;-76
2021/07/01 07:10:44;;;;;;;16.83;7.17;;;13.60;99.90;;;;;;4996040;28;20473;-76
2021/07/01 07:13:10;;;;;;;21.00;7.80;;;13.60;99.90;;;;;;4995627;28;20513;-74
2021/07/01 07:15:37;;;;;;;11.80;7.70;;;13.60;99.90;;;;;;4995951;28;20434;-75
2021/07/01 07:18:18;;;;;;;13.40;7.97;;;13.60;99.90;;;;;;4996169;28;20415;-77
2021/07/01 07:20:45;;;;;;;20.00;7.60;;;13.70;99.90;;;;;;4996155;28;20411;-74
2021/07/01 07:23:16;;;;;;;18.83;7.20;;;13.70;99.90;;;;;;4995775;28;20870;-75
2021/07/01 07:25:44;;;;;;;15.00;7.50;;;13.70;99.90;;;;;;4996131;28;20446;-77
2021/07/01 07:28:11;;;;;;;14.37;6.47;;;13.80;99.90;;;;;;4995907;28;20411;-76
2021/07/01 07:30:38;;;;;;;11.73;5.80;;;13.80;99.90;;;;;;4995665;28;20454;-74
2021/07/01 07:33:07;;;;;;;13.77;7.60;;;13.80;99.90;;;;;;4995530;28;20505;-75
2021/07/01 07:35:34;;;;;;;9.60;6.47;;;13.90;99.90;;;;;;4995668;28;20438;-78
2021/07/01 07:38:00;;;;;;;15.73;8.50;;;14.00;99.90;;;;;;4995689;28;20415;-75
2021/07/01 07:40:27;;;;;;;17.77;7.97;;;14.10;99.90;;;;;;4995603;28;20446;-78
2021/07/01 07:42:53;;;;;;;19.83;7.50;;;14.20;99.90;;;;;;4995070;28;20410;-76
2021/07/01 07:45:19;;;;;;;11.17;6.90;;;14.40;99.90;;;;;;4995080;28;20446;-80
2021/07/01 07:47:45;;;;;;;12.73;7.47;;;14.40;99.90;;;;;;4977730;28;20488;-75
2021/07/01 07:50:12;;;;;;;13.33;7.83;;;14.40;99.90;;;;;;4995311;28;20184;-76
2021/07/01 07:52:48;;;;;;;12.90;7.37;;;14.60;99.90;;;;;;4994818;28;20786;-77
2021/07/01 07:55:17;;;;;;;11.30;6.73;;;14.60;99.90;;;;;;4992577;28;20465;-78
2021/07/01 07:57:45;;;;;;;14.40;7.80;;;14.60;99.90;;;;;;4993689;28;20470;-77
2021/07/01 08:00:11;;;;;;;8.53;5.97;;;14.70;99.90;;;;;;4993991;28;20951;-75
2021/07/01 08:02:43;;;;;;;10.87;6.40;;;14.70;99.90;;;;;;4993809;28;20437;-76
2021/07/01 08:05:10;;;;;;;10.33;6.50;;;14.70;99.90;;;;;;4993602;28;20947;-75
2021/07/01 08:07:38;;;;;;;15.03;7.67;;;14.80;99.90;;;;;;4995003;28;20414;-77
2021/07/01 08:10:10;;;;;;;13.20;7.47;;;14.80;99.90;;;;;;4995403;28;20993;-79
2021/07/01 08:12:40;;;;;;;14.93;6.80;;;14.80;99.90;;;;;;4999337;28;20434;-77
2021/07/01 08:15:12;;;;;;;11.40;5.77;;;14.60;99.90;;;;;;4994598;28;20458;-77
2021/07/01 08:17:40;;;;;;;15.80;8.17;;;14.60;99.90;;;;;;4995170;28;20829;-76
2021/07/01 08:20:12;;;;;;;20.10;6.63;;;14.60;99.90;;;;;;4995021;28;20924;-77
2021/07/01 08:22:39;;;;;;;11.77;6.77;;;14.60;99.90;;;;;;4995057;28;20916;-75
2021/07/01 08:25:05;;;;;;;12.80;6.53;;;14.50;99.90;;;;;;4994809;28;20445;-78
2021/07/01 08:27:32;;;;;;;16.40;7.40;;;14.60;99.90;;;;;;4994947;28;20445;-75
2021/07/01 08:29:58;;;;;;;8.63;6.00;;;14.70;99.90;;;;;;4993564;28;20470;-75
2021/07/01 08:32:24;;;;;;;8.90;5.63;;;14.70;99.90;;;;;;4993632;28;20423;-77
2021/07/01 08:34:49;;;;;;;9.20;5.97;;;14.70;99.90;;;;;;4994678;28;20445;-75
2021/07/01 08:37:21;;;;;;;9.50;5.03;;;14.60;99.90;;;;;;4994978;28;20422;-76
2021/07/01 08:39:48;;;;;;;7.20;5.40;;;14.50;99.90;;;;;;4994856;28;20183;-78
2021/07/01 08:42:16;;;;;;;11.53;6.10;;;14.70;99.90;;;;;;4994932;28;20474;-76
2021/07/01 08:44:44;;;;;;;7.90;5.73;;;14.90;99.90;;;;;;4994680;28;20834;-76
2021/07/01 08:47:10;;;;;;;6.40;5.00;;;15.10;99.90;;;;;;4994457;28;20966;-76
2021/07/01 08:49:53;;;;;;;13.17;5.10;;;15.20;99.90;;;;;;4994421;28;20415;-76
2021/07/01 08:53:01;;;;;;;9.47;4.33;;;15.10;99.90;;;;;;4978079;28;20651;-77
2021/07/01 08:55:30;;;;;;;10.13;4.93;;;15.10;99.90;;;;;;4994107;28;20484;-74
2021/07/01 08:57:58;;;;;;;6.40;4.30;;;15.00;99.90;;;;;;4994352;28;20770;-77
2021/07/01 09:00:26;;;;;;;11.07;5.23;;;14.90;99.90;;;;;;4993418;28;20954;-74
2021/07/01 09:03:03;;;;;;;8.50;5.43;;;15.20;99.90;;;;;;4994193;28;20874;-76
2021/07/01 09:05:34;;;;;;;9.90;6.00;;;15.50;99.90;;;;;;4994352;28;20433;-79
2021/07/01 09:08:05;;;;;;;8.07;5.70;;;15.50;99.90;;;;;;4994365;28;20777;-77
2021/07/01 09:10:32;;;;;;;6.90;5.30;;;15.40;99.90;;;;;;4994221;28;20407;-75
2021/07/01 09:12:59;;;;;;;13.80;5.23;;;15.40;99.90;;;;;;4993525;28;20465;-76
2021/07/01 09:15:27;;;;;;;10.90;6.67;;;15.20;99.90;;;;;;4992622;28;20449;-76
2021/07/01 09:17:54;;;;;;;7.07;5.43;;;15.40;99.90;;;;;;4994195;28;20494;-75
2021/07/01 09:20:38;;;;;;;10.00;7.13;;;15.40;99.90;;;;;;4993992;28;20438;-76
2021/07/01 09:23:07;;;;;;;10.13;6.37;;;15.20;99.90;;;;;;4993693;28;20407;-77
2021/07/01 09:25:33;;;;;;;11.47;6.57;;;15.10;99.90;;;;;;4993897;28;20438;-77
2021/07/01 09:28:00;;;;;;;19.03;6.67;;;15.00;99.90;;;;;;4994253;28;20410;-76
2021/07/01 09:30:28;;;;;;;9.07;6.17;;;15.00;99.90;;;;;;4993894;28;20466;-76
2021/07/01 09:33:03;;;;;;;14.73;6.80;;;15.00;99.90;;;;;;4993818;28;20446;-77
2021/07/01 09:35:31;;;;;;;10.10;6.40;;;15.00;99.90;;;;;;4993931;28;20434;-76
2021/07/01 09:38:02;;;;;;;14.30;8.33;;;15.10;99.90;;;;;;4993828;28;20799;-77
2021/07/01 09:40:29;;;;;;;8.00;5.90;;;15.00;99.90;;;;;;4993847;28;20422;-76
2021/07/01 09:42:59;;;;;;;14.03;6.60;;;14.80;99.90;;;;;;4996371;28;20423;-77
2021/07/01 09:45:26;;;;;;;6.37;5.20;;;14.50;99.90;;;;;;4997734;28;20454;-77
2021/07/01 09:48:04;;;;;;;16.40;6.73;;;14.40;99.90;;;;;;4996610;28;20414;-75
2021/07/01 09:50:34;;;;;;;16.03;7.33;;;14.50;99.90;;;;;;4998452;28;20449;-77
2021/07/01 09:53:03;;;;;;;11.50;6.40;;;14.80;99.90;;;;;;4999377;28;20462;-77
2021/07/01 09:55:31;;;;;;;14.93;5.10;;;15.00;99.90;;;;;;4997467;28;20440;-77
2021/07/01 09:58:03;;;;;;;8.87;5.80;;;14.90;99.90;;;;;;4997281;28;20477;-77
2021/07/01 10:00:31;;;;;;;12.63;7.00;;;14.90;99.90;;;;;;4997750;28;20418;-76
2021/07/01 10:03:08;;;;;;;8.80;5.23;;;15.10;99.90;;;;;;4997419;28;20426;-77
2021/07/01 10:05:35;;;;;;;9.87;6.30;;;15.20;99.90;;;;;;4997285;28;20438;-78
2021/07/01 10:08:01;;;;;;;8.30;6.87;;;15.00;99.90;;;;;;4997177;28;20923;-76
2021/07/01 10:10:27;;;;;;;8.60;6.40;;;15.00;99.90;;;;;;4997625;28;20425;-76
2021/07/01 10:12:56;;;;;;;11.13;6.90;;;14.80;99.90;;;;;;4996862;28;20585;-76
2021/07/01 10:15:25;;;;;;;9.13;7.03;;;14.60;99.90;;;;;;4997733;28;20439;-78
2021/07/01 10:18:09;;;;;;;10.30;6.80;;;14.60;99.90;;;;;;4997509;28;20411;-76
2021/07/01 10:20:44;;;;;;;8.63;6.57;;;14.70;99.90;;;;;;4997689;28;20414;-76
2021/07/01 10:23:35;;;;;;;9.53;6.00;;;15.00;99.90;;;;;;4997388;28;20810;-77
2021/07/01 10:26:10;;;;;;;11.50;6.30;;;15.20;99.90;;;;;;4997214;28;20411;-75
2021/07/01 10:28:37;;;;;;;10.40;6.00;;;15.30;99.90;;;;;;4997468;28;20417;-76
2021/07/01 10:31:07;;;;;;;9.37;5.87;;;15.40;99.90;;;;;;4997160;28;20846;-77
2021/07/01 10:33:35;;;;;;;7.67;5.10;;;15.70;99.90;;;;;;4996777;28;20494;-79
2021/07/01 10:36:03;;;;;;;8.10;4.90;;;15.90;99.90;;;;;;4997724;28;20788;-77
2021/07/01 10:38:41;;;;;;;5.83;4.30;;;16.00;99.90;;;;;;4997694;28;20455;-77
2021/07/01 10:41:07;;;;;;;9.90;4.73;;;16.10;99.90;;;;;;4997387;28;20422;-76
2021/07/01 10:43:44;;;;;;;5.73;4.37;;;16.00;99.90;;;;;;4997800;28;20418;-76
2021/07/01 10:46:12;;;;;;;10.37;5.00;;;16.10;99.90;;;;;;4997615;28;20175;-76
2021/07/01 10:48:39;;;;;;;8.27;4.90;;;16.20;99.90;;;;;;4997029;28;20410;-78
2021/07/01 10:51:10;;;;;;;8.10;3.80;;;16.20;99.90;;;;;;4998699;28;20418;-77
2021/07/01 10:53:40;;;;;;;13.53;4.63;;;16.10;99.90;;;;;;4995631;28;21020;-76
2021/07/01 10:56:21;;;;;;;7.90;5.17;;;16.10;99.90;;;;;;4996994;28;20934;-77
2021/07/01 10:58:55;;;;;;;7.67;4.30;;;16.20;99.90;;;;;;4996942;28;20414;-76
2021/07/01 11:01:26;;;;;;;9.13;5.20;;;16.20;99.90;;;;;;4996883;28;20413;-76
2021/07/01 11:04:15;;;;;;;13.30;5.70;;;16.00;99.90;;;;;;4996500;28;20433;-76
2021/07/01 11:06:59;;;;;;;8.00;5.87;;;15.90;99.90;;;;;;4996978;28;20399;-76
2021/07/01 11:09:40;;;;;;;11.70;5.77;;;15.90;99.90;;;;;;4996387;28;20415;-77
2021/07/01 11:12:07;;;;;;;10.43;5.87;;;15.80;99.90;;;;;;4997159;28;20427;-77
2021/07/01 11:14:45;;;;;;;7.53;5.80;;;15.70;99.90;;;;;;4996166;28;20470;-76
2021/07/01 11:17:12;;;;;;;9.40;5.67;;;15.60;99.90;;;;;;4996594;28;20928;-77
2021/07/01 11:19:47;;;;;;;6.17;4.80;;;15.70;99.90;;;;;;4996474;28;20974;-78
2021/07/01 11:22:15;;;;;;;11.13;6.07;;;15.70;99.90;;;;;;4996695;28;20493;-77
2021/07/01 11:24:43;;;;;;;8.40;6.20;;;15.70;99.90;;;;;;4996027;28;20416;-76
2021/07/01 11:27:09;;;;;;;8.00;5.57;;;15.60;99.90;;;;;;4996930;28;20425;-77
2021/07/01 11:29:46;;;;;;;6.97;5.23;;;15.40;99.90;;;;;;4997777;28;20506;-76
2021/07/01 11:32:26;;;;;;;11.37;5.50;;;15.40;99.90;;;;;;4997403;28;20185;-77
2021/07/01 11:34:54;;;;;;;9.07;5.53;;;15.30;99.90;;;;;;4996477;28;20467;-76
2021/07/01 11:37:36;;;;;;;11.53;6.60;;;15.50;99.90;;;;;;4997196;28;20448;-79
2021/07/01 11:40:21;;;;;;;8.90;6.00;;;15.50;99.90;;;;;;4998378;28;20443;-78
2021/07/01 11:42:53;;;;;;;8.57;5.60;;;15.40;99.90;;;;;;4997260;28;20434;-77
2021/07/01 11:45:20;;;;;;;8.30;5.30;;;15.50;99.90;;;;;;4998010;28;20432;-78
2021/07/01 11:47:47;;;;;;;8.80;5.17;;;15.50;99.90;;;;;;4998173;28;20418;-79
2021/07/01 11:50:13;;;;;;;8.97;5.50;;;15.30;99.90;;;;;;4997101;28;20446;-76
2021/07/01 11:52:41;;;;;;;7.17;4.60;;;15.50;99.90;;;;;;4996733;28;20419;-77
2021/07/01 11:55:07;;;;;;;12.57;7.70;;;15.40;99.90;;;;;;4996916;28;20434;-77
2021/07/01 11:57:33;;;;;;;10.40;6.67;;;15.40;99.90;;;;;;4997435;28;20420;-79
2021/07/01 11:59:58;;;;;;;6.17;4.93;;;15.40;99.90;;;;;;4996669;28;20923;-76
2021/07/01 12:02:24;;;;;;;9.80;6.80;;;15.50;99.90;;;;;;4997004;28;20255;-78
2021/07/01 12:04:51;;;;;;;16.00;6.27;;;15.50;99.90;;;;;;4996322;28;20191;-77
2021/07/01 12:07:28;;;;;;;10.10;6.50;;;15.60;99.90;;;;;;4996977;28;20418;-78
2021/07/01 12:09:55;;;;;;;10.80;5.90;;;15.60;99.90;;;;;;4996461;28;20418;-75
2021/07/01 12:12:27;;;;;;;9.43;6.90;;;15.70;99.90;;;;;;4995105;28;20423;-78
2021/07/01 12:15:09;;;;;;;14.13;7.20;;;15.60;99.90;;;;;;4994533;28;20549;-77
2021/07/01 12:17:49;;;;;;;7.60;6.30;;;15.70;99.90;;;;;;4995100;28;20402;-76
2021/07/01 12:20:40;;;;;;;8.10;6.50;;;15.60;99.90;;;;;;4995037;28;20422;-76
2021/07/01 12:23:12;;;;;;;10.53;7.97;;;15.60;99.90;;;;;;4994775;28;20384;-76
2021/07/01 12:25:37;;;;;;;11.47;7.73;;;15.80;99.90;;;;;;4994900;28;20438;-78
2021/07/01 12:28:06;;;;;;;11.40;7.57;;;15.70;99.90;;;;;;4994907;28;20421;-77
2021/07/01 12:31:06;;;;;;;10.50;6.60;;;15.80;99.90;;;;;;4995010;28;20262;-78
2021/07/01 12:33:34;;;;;;;10.47;7.40;;;15.70;99.90;;;;;;4994351;28;20505;-76
2021/07/01 12:36:12;;;;;;;9.60;6.23;;;15.60;99.90;;;;;;4994729;28;20386;-76
2021/07/01 12:38:41;;;;;;;12.90;6.90;;;15.50;99.90;;;;;;4994618;28;20389;-77